Milton, FL

12:36 AM CST on March 06, 2015 (GMT -0600)
Milton, FL | Change Station
CLOSE
Current Station
Personal Weather Station
Location: Milton, FL
Elevation: 170 ft
Nearby Weather Stations

Elev 170 ft 30.65 °N, 87.06 °W | Updated 15 seconds ago

Clear
Clear
35.1 °F
Feels Like 35 °F
N
2.0
Wind Variable Wind from SW
Gusts 4.0 mph

Today
High -- | Low -- °F
--% Chance of Precip.
Yesterday
High -- | Low -- °F
Precip. -- in
6:09 AM 5:50 PM
Full, 100% visible
Pressure 30.32 in
Visibility 10.0 miles
Clouds Clear
Windchill 35 °F
Dew Point 30 °F
Humidity 80%
Rainfall in
Snow Depth Not available.
UV 0 out of 12
Pollen 5.30 out of 12
Air Quality Not available.
Flu Activity Not available.
METAR KNDZ 060556Z AUTO 36017KT 10SM CLR 03/M03 A3035 RMK AO2 SLP266 T00281033 10050 20028 402280028 50003

More Conditions Fewer Conditions

Pressure 30.32 in
Visibility 10.0 miles
Clouds Clear
Windchill 35 °F
Dew Point 30 °F
Humidity 80%
Rainfall in
Snow Depth Not available.
UV 0 out of 12
Pollen 5.30 out of 12
Air Quality Not available.
Flu Activity Not available.
METAR KNDZ 060556Z AUTO 36017KT 10SM CLR 03/M03 A3035 RMK AO2 SLP266 T00281033 10050 20028 402280028 50003

More Conditions Fewer Conditions

10-Day Weather Forecast

Almanac

Astronomy

Mar. 06, 2015 Rise Set
Actual Time
Civil Twilight
Nautical Twilight
Astronomical Twilight
Moon
Length of Visible Light
Length of Day
Tomorrow will be .
, % of the Moon is Illuminated

Today's Extremes

State Highs State Lows

Community

WunderPhotos

Upload Photos

1,803,195 photos uploaded!

WunderBlogs® & News

Nearby

Air Quality

  Air Quality AQ Index Pollutant
Not available.

Snow Depth

Station Depth Elevation

Earthquake Activity

City Distance Mag. Time & Date
Minimum magnitude displayed is 2.5.

Coastal Water Temperatures

Place Temperature

Nearby Weather Stations